Terminal Aerodrome Forecast
Issued by NWS

Home | Current Version | Previous Version | Text Only | Print | Product List | Glossary Off
Versions: 1 2 3 4 5 6 7 8 9 10 11 12 13 14

000
FTUS43 KGRB 041136
TAFMTW
TAF
KMTW 041136Z 0412/0512 VRB03KT 6SM BR SCT100 BKN250
     FM041500 05004KT 6SM HZ SCT040
     FM041900 12009KT P6SM FEW040
     FM050200 15003KT 6SM BR SCT050=

USA.gov is the U.S. government's official web portal to all federal, state and local government web resources and services.